Time;durP1;ratioP1;P1;durP2;ratioP2;P2;SDS_P1;SDS_P2;PMS_P1;PMS_P2;Temp;Humidity;BMP_temperature;BMP_pressure;BME280_temperature;BME280_humidity;BME280_pressure;Samples;Min_cycle;Max_cycle;Signal;HPM_P1;HPM_P2
2023/05/01 00:09:48;;;;;;;6.10;3.45;;;;;;;;;;6130201;23;20067;-96
2023/05/01 00:20:49;;;;;;;6.65;3.75;;;;;;;;;;6245310;22;20043;-94
2023/05/01 00:44:12;;;;;;;7.10;3.53;;;;;;;;;;6239004;22;20028;-93
2023/05/01 00:46:38;;;;;;;5.68;3.42;;;;;;;;;;6227544;23;20005;-93
2023/05/01 00:55:35;;;;;;;8.57;3.90;;;;;;;;;;6131626;23;20144;-96
2023/05/01 01:01:20;;;;;;;7.00;3.40;;;;;;;;;;6098267;23;20018;-95
2023/05/01 01:16:23;;;;;;;9.50;4.15;;;;;;;;;;6069219;23;20013;-96
2023/05/01 01:19:25;;;;;;;;;;;;;;;;;;;;;
2023/05/01 01:22:40;;;;;;;7.30;3.70;;;;;;;;;;6075707;23;20053;-93
2023/05/01 01:25:40;;;;;;;8.70;3.70;;;;;;;;;;6139885;23;20004;-96
2023/05/01 01:28:32;;;;;;;7.65;4.20;;;;;;;;;;6201952;23;20012;-96
2023/05/01 01:31:33;;;;;;;;;;;;;;;;;;;;;
2023/05/01 01:37:53;;;;;;;11.63;4.55;;;;;;;;;;6131074;23;20016;-95
2023/05/01 01:43:38;;;;;;;8.75;3.65;;;;;;;;;;5969156;24;20024;-96
2023/05/01 01:46:45;;;;;;;7.23;4.00;;;;;;;;;;5933492;24;20049;-96
2023/05/01 01:53:10;;;;;;;9.45;4.20;;;;;;;;;;5921289;24;20133;-96
2023/05/01 02:21:08;;;;;;;;;;;;;;;;;;;;;
2023/05/01 02:24:24;;;;;;;;;;;;;;;;;;;;;
2023/05/01 02:37:09;;;;;;;8.20;3.50;;;;;;;;;;5827413;24;20017;-96
2023/05/01 02:46:13;;;;;;;8.73;4.55;;;;;;;;;;6074180;23;20034;-96
2023/05/01 02:48:41;;;;;;;9.38;4.63;;;;;;;;;;6053920;23;20015;-95
2023/05/01 02:54:53;;;;;;;10.80;4.80;;;;;;;;;;6076889;23;20496;-96
2023/05/01 02:57:50;;;;;;;10.07;4.57;;;;;;;;;;6073557;23;20484;-96
2023/05/01 03:00:17;;;;;;;9.60;4.60;;;;;;;;;;6040107;23;20015;-92
2023/05/01 03:03:54;;;;;;;7.38;4.43;;;;;;;;;;6048961;23;20034;-95
2023/05/01 03:06:32;;;;;;;12.13;4.85;;;;;;;;;;5985996;24;20011;-95
2023/05/01 03:08:58;;;;;;;8.38;4.50;;;;;;;;;;5964735;24;20011;-92
2023/05/01 03:11:37;;;;;;;10.35;4.95;;;;;;;;;;5963564;24;20008;-93
2023/05/01 04:10:17;;;;;;;9.90;4.68;;;;;;;;;;6069753;23;20059;-96
2023/05/01 04:16:02;;;;;;;10.15;4.70;;;;;;;;;;6075791;23;20018;-95
2023/05/01 04:58:51;;;;;;;9.93;4.65;;;;;;;;;;6138643;23;20038;-95
2023/05/01 05:06:44;;;;;;;11.23;5.22;;;;;;;;;;6251567;23;20035;-93
2023/05/01 05:18:25;;;;;;;11.40;5.00;;;;;;;;;;6239203;22;20020;-92
2023/05/01 06:00:47;;;;;;;9.35;5.43;;;;;;;;;;6216826;23;20533;-94
2023/05/01 06:03:34;;;;;;;8.48;5.43;;;;;;;;;;6214550;23;20024;-95
2023/05/01 06:06:03;;;;;;;9.00;6.22;;;;;;;;;;6189733;23;20005;-94
2023/05/01 06:14:11;;;;;;;7.82;6.20;;;;;;;;;;6247928;22;20047;-93
2023/05/01 06:16:46;;;;;;;8.20;5.90;;;;;;;;;;6220837;23;20008;-92
2023/05/01 06:19:14;;;;;;;9.98;6.75;;;;;;;;;;6223227;23;20384;-95
2023/05/01 06:21:43;;;;;;;10.00;6.38;;;;;;;;;;6225892;23;20091;-95
2023/05/01 06:24:09;;;;;;;8.68;5.82;;;;;;;;;;6222277;23;20083;-94
2023/05/01 06:26:38;;;;;;;11.95;6.50;;;;;;;;;;6222847;23;20004;-96
2023/05/01 06:29:12;;;;;;;9.27;6.82;;;;;;;;;;6223457;23;20020;-96
2023/05/01 06:31:47;;;;;;;9.32;5.85;;;;;;;;;;6222526;23;20008;-94
2023/05/01 06:34:13;;;;;;;9.43;6.20;;;;;;;;;;6224982;23;20008;-95
2023/05/01 06:37:06;;;;;;;8.77;6.28;;;;;;;;;;6249719;23;20004;-96
2023/05/01 06:42:55;;;;;;;10.93;7.07;;;;;;;;;;6135711;23;20046;-95
2023/05/01 06:45:38;;;;;;;;;;;;;;;;;;;;;
2023/05/01 06:48:10;;;;;;;8.88;6.35;;;;;;;;;;6120968;23;20041;-96
2023/05/01 06:51:06;;;;;;;;;;;;;;;;;;;;;
2023/05/01 06:53:58;;;;;;;10.07;6.30;;;;;;;;;;6140980;23;20013;-96
2023/05/01 06:56:28;;;;;;;9.52;6.18;;;;;;;;;;6108748;23;20317;-95
2023/05/01 06:58:58;;;;;;;10.07;6.43;;;;;;;;;;6131715;23;20009;-92
2023/05/01 07:01:53;;;;;;;7.95;6.32;;;;;;;;;;6104791;23;20090;-94
2023/05/01 07:11:11;;;;;;;8.63;5.75;;;;;;;;;;6067934;23;20014;-95
2023/05/01 07:19:16;;;;;;;8.77;5.55;;;;;;;;;;6188146;23;20087;-94
2023/05/01 07:22:02;;;;;;;;;;;;;;;;;;;;;
2023/05/01 07:25:01;;;;;;;;;;;;;;;;;;;;;
2023/05/01 07:30:38;;;;;;;7.75;6.20;;;;;;;;;;6096646;23;20013;-94
2023/05/01 07:33:50;;;;;;;;;;;;;;;;;;;;;
2023/05/01 07:36:20;;;;;;;7.82;6.10;;;;;;;;;;6102772;23;20026;-94
2023/05/01 07:41:41;;;;;;;8.32;6.43;;;;;;;;;;6090932;23;20015;-95
2023/05/01 07:49:59;;;;;;;7.95;6.20;;;;;;;;;;6093100;22;20055;-94
2023/05/01 07:52:54;;;;;;;;;;;;;;;;;;;;;
2023/05/01 07:55:54;;;;;;;8.48;5.95;;;;;;;;;;6254111;23;20028;-96
2023/05/01 07:58:24;;;;;;;7.05;5.97;;;;;;;;;;6223577;23;20008;-96
2023/05/01 08:01:14;;;;;;;7.10;5.32;;;;;;;;;;6228146;23;20095;-96
2023/05/01 08:03:44;;;;;;;7.53;5.95;;;;;;;;;;6228971;23;20007;-95
2023/05/01 08:09:48;;;;;;;7.80;4.97;;;;;;;;;;6163466;23;20037;-95
2023/05/01 08:34:38;;;;;;;7.10;3.97;;;;;;;;;;6186084;22;20025;-94
2023/05/01 08:40:08;;;;;;;;;;;;;;;;;;6219704;23;20051;-96
2023/05/01 08:42:36;;;;;;;5.53;3.85;;;;;;;;;;6190405;23;19907;-95
2023/05/01 08:45:03;;;;;;;6.65;4.18;;;;;;;;;;6191006;23;20430;-94
2023/05/01 08:47:32;;;;;;;6.90;4.20;;;;;;;;;;6194283;23;20005;-96
2023/05/01 08:49:59;;;;;;;5.20;4.05;;;;;;;;;;6193469;23;20008;-96
2023/05/01 08:52:26;;;;;;;6.10;4.35;;;;;;;;;;6190675;23;20000;-94
2023/05/01 08:54:55;;;;;;;7.82;3.40;;;;;;;;;;6190411;23;20032;-96
2023/05/01 09:00:14;;;;;;;8.07;3.85;;;;;;;;;;6201925;22;20059;-93
2023/05/01 09:08:41;;;;;;;5.80;4.15;;;;;;;;;;6156406;23;20015;-96
2023/05/01 09:31:41;;;;;;;5.65;3.90;;;;;;;;;;6229663;22;20031;-93
2023/05/01 09:34:07;;;;;;;5.93;4.30;;;;;;;;;;6219729;23;20004;-93
2023/05/01 09:36:34;;;;;;;8.07;4.45;;;;;;;;;;6219872;23;20083;-94
2023/05/01 09:39:21;;;;;;;7.53;4.22;;;;;;;;;;6217582;23;20024;-96
2023/05/01 09:41:51;;;;;;;6.72;4.10;;;;;;;;;;6220520;23;20020;-92
2023/05/01 09:47:22;;;;;;;6.50;3.95;;;;;;;;;;6216872;22;20024;-94
2023/05/01 09:55:28;;;;;;;6.22;5.05;;;;;;;;;;6248865;23;20070;-93
2023/05/01 10:10:02;;;;;;;;;;;;;;;;;;6248632;23;20019;-91
2023/05/01 10:12:32;;;;;;;7.10;4.82;;;;;;;;;;6221433;23;19911;-92
2023/05/01 10:18:02;;;;;;;8.57;4.97;;;;;;;;;;6248127;23;20011;-89
2023/05/01 10:20:58;;;;;;;7.22;5.30;;;;;;;;;;6210942;22;20020;-90
2023/05/01 10:23:40;;;;;;;8.60;5.35;;;;;;;;;;6216631;23;20086;-89
2023/05/01 10:26:25;;;;;;;8.00;5.43;;;;;;;;;;6217369;23;20337;-90
2023/05/01 10:40:39;;;;;;;6.20;3.47;;;;;;;;;;6120027;23;20052;-90
2023/05/01 10:46:25;;;;;;;5.80;3.95;;;;;;;;;;6126384;23;20013;-92
2023/05/01 11:01:47;;;;;;;5.53;4.03;;;;;;;;;;6247444;23;20027;-89
2023/05/01 11:04:23;;;;;;;6.85;4.55;;;;;;;;;;6222364;23;20004;-93
2023/05/01 11:07:12;;;;;;;6.47;4.50;;;;;;;;;;6221017;23;20106;-95
2023/05/01 11:09:42;;;;;;;8.85;4.53;;;;;;;;;;6220416;23;20004;-95
2023/05/01 11:21:29;;;;;;;6.78;4.40;;;;;;;;;;6223925;22;20124;-92
2023/05/01 11:23:58;;;;;;;7.00;4.40;;;;;;;;;;6222081;23;20026;-95
2023/05/01 11:26:24;;;;;;;7.55;4.05;;;;;;;;;;6220675;23;20004;-93
2023/05/01 11:28:59;;;;;;;5.93;4.32;;;;;;;;;;6221825;23;20004;-96
2023/05/01 11:31:34;;;;;;;6.55;4.18;;;;;;;;;;6241793;22;20027;-96
2023/05/01 11:34:00;;;;;;;7.68;3.53;;;;;;;;;;6221066;23;20425;-95
2023/05/01 11:36:33;;;;;;;5.22;3.65;;;;;;;;;;6220670;23;20006;-95
2023/05/01 11:38:59;;;;;;;7.95;4.13;;;;;;;;;;6220834;23;20095;-94
2023/05/01 11:41:26;;;;;;;7.07;4.80;;;;;;;;;;6222834;23;20038;-94
2023/05/01 11:44:01;;;;;;;5.57;4.25;;;;;;;;;;6223845;23;19999;-93
2023/05/01 11:46:31;;;;;;;7.85;4.57;;;;;;;;;;6224612;23;20004;-93
2023/05/01 12:38:03;;;;;;;6.65;3.42;;;;;;;;;;6212262;22;20095;-95
2023/05/01 12:40:30;;;;;;;7.43;3.95;;;;;;;;;;6189410;23;20021;-95
2023/05/01 12:43:03;;;;;;;5.38;3.97;;;;;;;;;;6189534;23;20005;-94
2023/05/01 12:51:52;;;;;;;7.47;3.60;;;;;;;;;;6162641;22;20018;-93
2023/05/01 12:54:31;;;;;;;5.72;3.80;;;;;;;;;;6250881;22;20789;-94
2023/05/01 12:57:13;;;;;;;6.03;3.47;;;;;;;;;;6252359;22;20008;-95
2023/05/01 13:02:43;;;;;;;6.55;3.75;;;;;;;;;;6267056;22;20038;-95
2023/05/01 13:05:10;;;;;;;7.32;3.30;;;;;;;;;;6222711;23;20012;-94
2023/05/01 13:07:38;;;;;;;5.68;3.10;;;;;;;;;;6220519;23;20035;-95
2023/05/01 13:10:05;;;;;;;5.70;3.50;;;;;;;;;;6220139;23;20091;-95
2023/05/01 13:12:32;;;;;;;6.13;3.30;;;;;;;;;;6218830;23;20041;-92
2023/05/01 13:14:59;;;;;;;5.30;2.72;;;;;;;;;;6222610;23;20008;-94
2023/05/01 13:17:29;;;;;;;4.10;2.40;;;;;;;;;;6221498;23;20018;-95
2023/05/01 13:19:58;;;;;;;3.40;2.30;;;;;;;;;;6219666;23;20000;-93
2023/05/01 13:22:37;;;;;;;4.05;2.10;;;;;;;;;;6219850;23;20011;-92
2023/05/01 13:25:24;;;;;;;3.95;2.33;;;;;;;;;;6220808;23;20000;-92
2023/05/01 13:27:51;;;;;;;4.75;2.30;;;;;;;;;;6219944;23;20001;-92
2023/05/01 13:30:21;;;;;;;5.90;2.42;;;;;;;;;;6221746;23;20623;-93
2023/05/01 13:32:48;;;;;;;6.18;2.08;;;;;;;;;;6221888;23;20509;-92
2023/05/01 13:35:22;;;;;;;4.22;1.95;;;;;;;;;;6221846;23;20000;-93
2023/05/01 13:37:48;;;;;;;4.15;2.00;;;;;;;;;;6222105;23;20035;-93
2023/05/01 13:40:14;;;;;;;3.65;1.80;;;;;;;;;;6222283;23;20087;-92
2023/05/01 13:42:41;;;;;;;3.80;1.83;;;;;;;;;;6222065;23;20015;-93
2023/05/01 13:45:10;;;;;;;3.78;2.05;;;;;;;;;;6221643;23;20053;-91
2023/05/01 13:47:39;;;;;;;5.80;2.00;;;;;;;;;;6248495;23;20075;-94
2023/05/01 13:58:51;;;;;;;3.97;1.92;;;;;;;;;;6246712;22;20028;-92
2023/05/01 14:01:19;;;;;;;3.63;2.17;;;;;;;;;;6221901;23;20015;-94
2023/05/01 14:03:45;;;;;;;2.97;1.73;;;;;;;;;;6221653;23;20032;-94
2023/05/01 14:06:15;;;;;;;3.33;2.28;;;;;;;;;;6221686;23;20040;-92
2023/05/01 14:08:42;;;;;;;3.85;2.20;;;;;;;;;;6221905;23;20032;-92
2023/05/01 14:11:08;;;;;;;4.68;2.20;;;;;;;;;;6221532;23;20004;-93
2023/05/01 14:13:44;;;;;;;4.65;1.90;;;;;;;;;;6224099;23;20023;-93
2023/05/01 14:16:22;;;;;;;3.42;1.90;;;;;;;;;;6228456;23;20004;-94
2023/05/01 14:18:52;;;;;;;4.63;1.85;;;;;;;;;;6245522;23;20008;-94
2023/05/01 14:21:24;;;;;;;4.90;2.20;;;;;;;;;;6232629;23;20019;-96
2023/05/01 14:23:54;;;;;;;4.45;1.80;;;;;;;;;;6229468;23;20008;-95
2023/05/01 14:26:22;;;;;;;4.55;1.70;;;;;;;;;;6227012;23;20047;-96
2023/05/01 14:28:48;;;;;;;3.85;1.63;;;;;;;;;;6221637;23;20057;-92
2023/05/01 14:31:18;;;;;;;6.35;1.60;;;;;;;;;;6221729;23;20012;-93
2023/05/01 14:33:44;;;;;;;5.53;1.85;;;;;;;;;;6221232;23;20429;-92
2023/05/01 14:36:11;;;;;;;4.75;1.80;;;;;;;;;;6220989;23;20031;-93
2023/05/01 14:38:39;;;;;;;5.28;1.73;;;;;;;;;;6221107;23;20008;-92
2023/05/01 14:41:05;;;;;;;5.10;1.65;;;;;;;;;;6221267;23;20028;-92
2023/05/01 14:43:32;;;;;;;4.22;1.33;;;;;;;;;;6221284;23;20011;-92
2023/05/01 14:45:59;;;;;;;2.20;1.40;;;;;;;;;;6221495;23;20028;-93
2023/05/01 14:48:28;;;;;;;3.42;1.63;;;;;;;;;;6220865;23;20008;-93
2023/05/01 14:50:56;;;;;;;2.80;1.58;;;;;;;;;;6221223;23;20012;-92
2023/05/01 14:53:23;;;;;;;3.28;1.70;;;;;;;;;;6221132;23;20038;-92
2023/05/01 14:55:50;;;;;;;5.53;1.77;;;;;;;;;;6221271;23;20087;-94
2023/05/01 14:58:19;;;;;;;6.03;1.90;;;;;;;;;;6215747;23;20050;-92
2023/05/01 15:00:45;;;;;;;4.32;1.80;;;;;;;;;;6215941;23;20067;-91
2023/05/01 15:23:46;;;;;;;4.82;2.00;;;;;;;;;;6241318;23;20031;-90
2023/05/01 15:26:15;;;;;;;5.10;1.80;;;;;;;;;;6221768;23;20008;-95
2023/05/01 15:28:41;;;;;;;7.72;1.70;;;;;;;;;;6219506;23;20035;-92
2023/05/01 15:31:07;;;;;;;4.05;1.80;;;;;;;;;;6219739;23;20004;-91
2023/05/01 15:33:34;;;;;;;4.25;1.95;;;;;;;;;;6220078;23;20066;-91
2023/05/01 15:36:00;;;;;;;7.65;2.63;;;;;;;;;;6221043;23;20012;-91
2023/05/01 15:44:46;;;;;;;7.85;1.70;;;;;;;;;;6247314;23;20062;-92
2023/05/01 15:47:13;;;;;;;4.55;1.80;;;;;;;;;;6220555;23;20004;-94
2023/05/01 15:52:41;;;;;;;3.67;1.60;;;;;;;;;;6247053;23;20020;-89
2023/05/01 15:55:07;;;;;;;4.97;1.60;;;;;;;;;;6220342;23;20004;-92
2023/05/01 15:57:36;;;;;;;4.25;1.63;;;;;;;;;;6219869;23;20004;-88
2023/05/01 16:02:38;;;;;;;6.00;1.70;;;;;;;;;;6242752;22;20024;-89
2023/05/01 16:05:04;;;;;;;4.05;1.65;;;;;;;;;;6220440;23;20008;-91
2023/05/01 16:07:30;;;;;;;5.65;1.52;;;;;;;;;;6220550;23;20103;-90
2023/05/01 16:09:57;;;;;;;3.33;1.77;;;;;;;;;;6220870;23;20000;-89
2023/05/01 16:12:23;;;;;;;3.10;1.83;;;;;;;;;;6220734;23;20054;-90
2023/05/01 16:14:49;;;;;;;6.82;1.83;;;;;;;;;;6220314;23;20062;-90
2023/05/01 16:17:18;;;;;;;3.38;1.65;;;;;;;;;;6220000;23;20004;-90
2023/05/01 16:19:45;;;;;;;3.95;1.60;;;;;;;;;;6220233;23;20032;-90
2023/05/01 16:22:11;;;;;;;4.57;1.80;;;;;;;;;;6219976;23;20489;-91
2023/05/01 16:24:38;;;;;;;4.28;1.75;;;;;;;;;;6223368;23;20084;-90
2023/05/01 16:30:13;;;;;;;5.07;1.65;;;;;;;;;;6172945;22;20095;-91
2023/05/01 16:36:00;;;;;;;6.07;1.73;;;;;;;;;;6228025;22;20093;-96
2023/05/01 16:38:38;;;;;;;4.47;1.58;;;;;;;;;;6281582;22;20016;-96
2023/05/01 16:41:04;;;;;;;4.00;1.80;;;;;;;;;;6250497;22;20052;-92
2023/05/01 16:43:30;;;;;;;3.92;1.90;;;;;;;;;;6226084;23;20041;-94
2023/05/01 16:46:00;;;;;;;4.13;1.63;;;;;;;;;;6227346;23;20008;-95
2023/05/01 16:48:35;;;;;;;4.55;2.13;;;;;;;;;;6230880;23;20005;-96
2023/05/01 16:51:04;;;;;;;3.10;1.90;;;;;;;;;;6254844;23;20067;-93
2023/05/01 16:53:31;;;;;;;5.10;1.65;;;;;;;;;;6216498;22;20047;-95
2023/05/01 16:55:57;;;;;;;4.50;1.90;;;;;;;;;;6218575;23;20008;-92
2023/05/01 17:01:57;;;;;;;4.68;3.45;;;;;;;;;;6223125;23;20028;-93
2023/05/01 17:04:23;;;;;;;76.20;58.92;;;;;;;;;;6217555;23;20005;-95
2023/05/01 17:06:50;;;;;;;130.40;99.82;;;;;;;;;;6218148;23;20005;-93
2023/05/01 17:09:19;;;;;;;155.40;110.07;;;;;;;;;;6218339;23;20012;-95
2023/05/01 17:11:45;;;;;;;147.02;109.97;;;;;;;;;;6215937;23;20009;-93
2023/05/01 17:14:11;;;;;;;57.35;51.05;;;;;;;;;;6217537;23;20032;-93
2023/05/01 17:16:39;;;;;;;43.97;39.53;;;;;;;;;;6216911;23;20028;-93
2023/05/01 17:19:37;;;;;;;;;;;;;;;;;;;;;
2023/05/01 17:22:07;;;;;;;10.18;9.15;;;;;;;;;;6215782;23;20537;-94
2023/05/01 17:24:34;;;;;;;10.05;8.40;;;;;;;;;;6223627;23;19984;-95
2023/05/01 17:30:38;;;;;;;4.00;2.58;;;;;;;;;;6139060;23;20053;-93
2023/05/01 17:33:54;;;;;;;6.35;2.58;;;;;;;;;;6141775;23;20010;-93
2023/05/01 17:36:20;;;;;;;3.10;2.15;;;;;;;;;;6214550;23;20657;-94
2023/05/01 17:38:49;;;;;;;14.18;9.27;;;;;;;;;;6228847;23;20445;-95
2023/05/01 17:41:16;;;;;;;94.30;67.68;;;;;;;;;;6219622;23;20067;-93
2023/05/01 17:43:44;;;;;;;199.50;133.75;;;;;;;;;;6224996;23;20414;-94
2023/05/01 17:46:37;;;;;;;;;;;;;;;;;;;;;
2023/05/01 17:49:40;;;;;;;10.97;5.57;;;;;;;;;;6229787;23;20005;-95
2023/05/01 17:52:43;;;;;;;9.93;4.38;;;;;;;;;;6232329;23;20012;-94
2023/05/01 18:01:21;;;;;;;6.38;5.40;;;;;;;;;;6247075;23;20054;-94
2023/05/01 18:03:47;;;;;;;6.50;3.10;;;;;;;;;;6222132;23;20461;-94
2023/05/01 18:06:54;;;;;;;;;;;;;;;;;;;;;
2023/05/01 18:09:21;;;;;;;9.70;4.85;;;;;;;;;;6222595;23;20020;-94
2023/05/01 18:11:57;;;;;;;6.20;3.05;;;;;;;;;;6227263;23;20004;-93
2023/05/01 18:14:23;;;;;;;5.13;2.83;;;;;;;;;;6248293;23;20008;-93
2023/05/01 18:17:16;;;;;;;6.93;2.50;;;;;;;;;;6239808;23;20015;-95
2023/05/01 18:19:53;;;;;;;4.20;2.40;;;;;;;;;;6261433;23;20079;-96
2023/05/01 18:22:24;;;;;;;23.27;2.80;;;;;;;;;;6246809;23;20012;-96
2023/05/01 18:24:51;;;;;;;7.18;3.22;;;;;;;;;;6254928;23;20012;-94
2023/05/01 18:27:17;;;;;;;6.90;4.00;;;;;;;;;;6227129;23;20000;-91
2023/05/01 18:29:46;;;;;;;7.25;4.18;;;;;;;;;;6226026;23;20008;-96
2023/05/01 18:32:13;;;;;;;9.23;4.35;;;;;;;;;;6228988;23;20087;-94
2023/05/01 18:34:41;;;;;;;8.85;3.65;;;;;;;;;;6230671;23;20000;-94
2023/05/01 18:37:21;;;;;;;10.77;3.92;;;;;;;;;;6231597;23;20130;-95
2023/05/01 18:40:07;;;;;;;12.18;5.38;;;;;;;;;;6243442;23;20012;-95
2023/05/01 18:42:33;;;;;;;5.88;3.83;;;;;;;;;;6227615;23;20108;-95
2023/05/01 18:45:00;;;;;;;5.90;3.00;;;;;;;;;;6246652;23;20406;-94
2023/05/01 18:47:46;;;;;;;;;;;;;;;;;;;;;
2023/05/01 18:50:15;;;;;;;6.10;3.55;;;;;;;;;;6227638;23;20096;-94
2023/05/01 18:52:41;;;;;;;7.07;3.72;;;;;;;;;;6217549;23;20043;-95
2023/05/01 18:55:10;;;;;;;6.88;2.92;;;;;;;;;;6217370;23;20023;-95
2023/05/01 18:58:07;;;;;;;6.55;2.92;;;;;;;;;;6218511;23;20008;-95
2023/05/01 19:00:57;;;;;;;7.82;3.33;;;;;;;;;;6217817;23;20020;-95
2023/05/01 19:03:28;;;;;;;5.82;3.33;;;;;;;;;;6220507;23;20005;-96
2023/05/01 19:15:28;;;;;;;17.65;8.95;;;;;;;;;;6244604;22;20123;-94
2023/05/01 19:18:09;;;;;;;11.95;7.20;;;;;;;;;;6224542;23;20008;-95
2023/05/01 19:20:38;;;;;;;10.88;6.35;;;;;;;;;;6216355;23;20008;-92
2023/05/01 19:23:05;;;;;;;12.98;7.38;;;;;;;;;;6221142;23;20004;-94
2023/05/01 19:25:37;;;;;;;9.57;6.18;;;;;;;;;;6220830;23;20000;-92
2023/05/01 19:28:07;;;;;;;9.18;6.07;;;;;;;;;;6242475;23;20012;-92
2023/05/01 19:33:47;;;;;;;7.88;5.38;;;;;;;;;;6247384;23;20011;-92
2023/05/01 19:36:13;;;;;;;14.80;8.23;;;;;;;;;;6220833;23;20010;-92
2023/05/01 19:38:40;;;;;;;15.20;10.05;;;;;;;;;;6220896;23;20008;-91
2023/05/01 19:41:18;;;;;;;17.88;9.85;;;;;;;;;;6211027;22;20021;-91
2023/05/01 19:43:44;;;;;;;16.00;9.13;;;;;;;;;;6215667;23;20012;-94
2023/05/01 19:46:10;;;;;;;9.75;5.95;;;;;;;;;;6216354;23;20091;-92
2023/05/01 19:48:36;;;;;;;13.05;7.72;;;;;;;;;;6215603;23;20021;-91
2023/05/01 19:51:04;;;;;;;24.88;10.63;;;;;;;;;;6215631;23;20001;-91
2023/05/01 19:53:35;;;;;;;17.98;11.13;;;;;;;;;;6216926;23;20009;-95
2023/05/01 19:56:01;;;;;;;24.30;16.27;;;;;;;;;;6216283;23;20028;-93
2023/05/01 19:58:30;;;;;;;35.20;21.85;;;;;;;;;;6216156;23;20011;-91
2023/05/01 20:01:01;;;;;;;56.63;33.22;;;;;;;;;;6217983;23;20438;-91
2023/05/01 20:03:28;;;;;;;76.38;46.67;;;;;;;;;;6217745;23;20012;-91
2023/05/01 20:05:55;;;;;;;77.63;48.35;;;;;;;;;;6216713;23;20012;-96
2023/05/01 20:08:22;;;;;;;59.05;38.20;;;;;;;;;;6192862;23;20009;-94
2023/05/01 20:10:48;;;;;;;49.28;33.22;;;;;;;;;;6215372;23;20036;-93
2023/05/01 20:13:15;;;;;;;28.45;20.27;;;;;;;;;;6215557;23;20000;-94
2023/05/01 20:15:42;;;;;;;20.13;14.52;;;;;;;;;;6216338;23;20023;-94
2023/05/01 20:18:08;;;;;;;26.38;14.82;;;;;;;;;;6215327;23;20016;-91
2023/05/01 20:20:34;;;;;;;33.80;16.67;;;;;;;;;;6215097;23;20651;-95
2023/05/01 20:26:06;;;;;;;31.08;15.90;;;;;;;;;;6216711;23;20086;-92
2023/05/01 20:28:35;;;;;;;;;;;;;;;;;;6216538;23;20334;-93
2023/05/01 20:31:02;;;;;;;24.48;13.07;;;;;;;;;;6215370;23;19928;-93
2023/05/01 20:33:39;;;;;;;26.55;14.20;;;;;;;;;;6215564;23;20004;-92
2023/05/01 20:36:16;;;;;;;24.95;13.82;;;;;;;;;;6216178;23;20012;-95
2023/05/01 20:38:42;;;;;;;31.85;17.23;;;;;;;;;;6214950;23;20012;-94
2023/05/01 20:41:32;;;;;;;;;;;;;;;;;;;;;
2023/05/01 20:44:01;;;;;;;27.38;15.55;;;;;;;;;;6214816;23;20116;-93
2023/05/01 20:46:30;;;;;;;27.17;15.32;;;;;;;;;;6214109;23;20028;-91
2023/05/01 20:49:10;;;;;;;28.33;15.00;;;;;;;;;;6215565;23;20099;-95
2023/05/01 20:51:45;;;;;;;28.13;14.40;;;;;;;;;;6219855;23;20009;-96
2023/05/01 20:54:11;;;;;;;20.75;12.73;;;;;;;;;;6213625;23;20020;-95
2023/05/01 20:56:44;;;;;;;18.08;10.18;;;;;;;;;;6218271;23;20005;-96
2023/05/01 20:59:10;;;;;;;15.32;8.50;;;;;;;;;;6213597;23;20011;-95
2023/05/01 21:01:48;;;;;;;8.48;5.35;;;;;;;;;;6219898;23;20040;-95
2023/05/01 21:04:31;;;;;;;10.02;5.43;;;;;;;;;;6194049;23;20091;-95
2023/05/01 21:07:02;;;;;;;6.47;4.82;;;;;;;;;;6186967;23;20047;-96
2023/05/01 21:09:29;;;;;;;11.65;5.25;;;;;;;;;;6161827;23;20009;-96
2023/05/01 21:12:17;;;;;;;8.30;5.05;;;;;;;;;;6164655;23;20338;-95
2023/05/01 21:20:45;;;;;;;7.18;5.40;;;;;;;;;;6251859;23;20011;-96
2023/05/01 21:26:38;;;;;;;13.68;9.10;;;;;;;;;;6125024;23;20463;-95
2023/05/01 21:29:04;;;;;;;11.32;8.20;;;;;;;;;;6100828;23;20056;-94
2023/05/01 21:34:19;;;;;;;11.55;7.90;;;;;;;;;;6140900;23;20100;-94
2023/05/01 21:36:48;;;;;;;12.38;8.45;;;;;;;;;;6223163;23;20001;-95
2023/05/01 21:39:59;;;;;;;13.00;7.45;;;;;;;;;;6221886;23;20004;-94
2023/05/01 21:42:30;;;;;;;11.02;7.00;;;;;;;;;;6213431;23;20043;-95
2023/05/01 21:54:08;;;;;;;10.63;6.93;;;;;;;;;;6244072;22;20131;-96
2023/05/01 22:00:14;;;;;;;15.40;8.90;;;;;;;;;;6229525;23;20032;-96
2023/05/01 22:03:13;;;;;;;16.13;8.40;;;;;;;;;;6211998;23;20026;-96
2023/05/01 22:05:51;;;;;;;14.35;8.60;;;;;;;;;;6190382;22;20047;-96
2023/05/01 22:08:38;;;;;;;12.77;8.27;;;;;;;;;;6229348;23;20000;-96
2023/05/01 22:11:39;;;;;;;12.23;6.85;;;;;;;;;;6226050;23;20013;-96
2023/05/01 22:14:51;;;;;;;10.60;6.97;;;;;;;;;;6224124;23;20005;-96
2023/05/01 22:17:26;;;;;;;11.35;7.50;;;;;;;;;;6211405;23;20054;-96
2023/05/01 22:23:09;;;;;;;11.35;7.35;;;;;;;;;;6150528;23;20020;-96
2023/05/01 22:25:35;;;;;;;12.07;7.78;;;;;;;;;;6221812;23;20011;-96
2023/05/01 22:28:04;;;;;;;15.63;8.43;;;;;;;;;;6229581;23;20005;-96
2023/05/01 22:30:53;;;;;;;12.95;8.00;;;;;;;;;;6228620;23;20005;-96
2023/05/01 22:33:19;;;;;;;15.88;8.00;;;;;;;;;;6218673;23;20039;-96
2023/05/01 22:35:45;;;;;;;15.63;7.38;;;;;;;;;;6223980;23;20005;-95
2023/05/01 22:38:11;;;;;;;13.55;7.72;;;;;;;;;;6227015;23;20092;-96
2023/05/01 22:40:37;;;;;;;10.40;7.05;;;;;;;;;;6225603;23;20009;-95
2023/05/01 22:43:04;;;;;;;10.68;6.00;;;;;;;;;;6230274;23;20020;-94
2023/05/01 22:45:31;;;;;;;13.38;8.07;;;;;;;;;;6229500;23;20009;-96
2023/05/01 22:48:14;;;;;;;12.63;7.75;;;;;;;;;;6227235;23;20024;-96
2023/05/01 22:51:06;;;;;;;10.73;7.43;;;;;;;;;;6227412;23;20035;-96
2023/05/01 22:53:53;;;;;;;13.07;6.95;;;;;;;;;;6229439;23;20044;-95
2023/05/01 22:56:28;;;;;;;9.50;7.32;;;;;;;;;;6230496;23;20004;-96
2023/05/01 22:59:06;;;;;;;12.13;7.22;;;;;;;;;;6217059;22;20032;-96
2023/05/01 23:01:34;;;;;;;11.88;7.55;;;;;;;;;;6219240;23;20018;-95
2023/05/01 23:04:07;;;;;;;11.20;6.63;;;;;;;;;;6223653;23;20016;-95
2023/05/01 23:06:46;;;;;;;13.40;7.45;;;;;;;;;;6223057;23;20012;-96
2023/05/01 23:09:38;;;;;;;11.57;6.70;;;;;;;;;;6229155;23;20430;-95
2023/05/01 23:12:08;;;;;;;9.48;6.53;;;;;;;;;;6226679;23;20333;-95
2023/05/01 23:15:01;;;;;;;9.27;6.75;;;;;;;;;;6230965;23;20001;-94
2023/05/01 23:17:33;;;;;;;10.33;7.53;;;;;;;;;;6234936;23;19989;-96
2023/05/01 23:26:10;;;;;;;9.60;6.13;;;;;;;;;;6052201;23;20102;-95
2023/05/01 23:28:42;;;;;;;10.00;6.38;;;;;;;;;;6033241;23;20066;-95
2023/05/01 23:31:29;;;;;;;9.48;6.30;;;;;;;;;;6028270;23;20325;-95
2023/05/01 23:38:15;;;;;;;;;;;;;;;;;;;;;
2023/05/01 23:40:26;;;;;;;9.73;6.07;;;;;;;;;;5911408;24;20113;-96
